createdAt,value
2019-03-15T00:00:34.642Z,6.84
2019-03-15T00:03:48.207Z,6.77
2019-03-15T00:07:01.850Z,6.72
2019-03-15T00:10:15.449Z,6.83
2019-03-15T00:13:28.916Z,6.77
2019-03-15T00:16:42.673Z,6.58
2019-03-15T00:19:56.502Z,6.56
2019-03-15T00:23:10.208Z,6.57
2019-03-15T00:26:23.690Z,6.62
2019-03-15T00:29:37.252Z,6.58
2019-03-15T00:32:51.038Z,6.53
2019-03-15T00:36:04.619Z,6.49
2019-03-15T00:39:18.083Z,6.46
2019-03-15T00:42:31.913Z,6.52
2019-03-15T00:45:45.383Z,6.65
2019-03-15T00:48:59.132Z,6.67
2019-03-15T00:52:12.967Z,6.66
2019-03-15T00:55:26.541Z,6.61
2019-03-15T00:58:39.996Z,6.66
2019-03-15T01:01:54.054Z,6.70
2019-03-15T01:05:07.806Z,6.69
2019-03-15T01:08:21.300Z,6.72
2019-03-15T01:11:34.737Z,6.79
2019-03-15T01:14:48.432Z,6.80
2019-03-15T01:18:02.221Z,6.71
2019-03-15T01:21:15.951Z,6.79
2019-03-15T01:24:29.703Z,6.82
2019-03-15T01:27:43.312Z,6.82
2019-03-15T01:30:56.787Z,6.89
2019-03-15T01:34:10.263Z,6.97
2019-03-15T01:37:24.064Z,7.00
2019-03-15T01:40:37.521Z,7.02
2019-03-15T01:43:50.997Z,7.03
2019-03-15T01:47:04.792Z,7.07
2019-03-15T01:50:18.298Z,6.94
2019-03-15T01:53:32.056Z,6.91
2019-03-15T01:56:45.537Z,6.89
2019-03-15T01:59:58.994Z,6.86
2019-03-15T02:03:13.562Z,6.78
2019-03-15T02:06:27.260Z,6.79
2019-03-15T02:09:40.729Z,6.76
2019-03-15T02:12:54.198Z,6.72
2019-03-15T02:16:08.765Z,6.80
2019-03-15T02:19:22.467Z,6.78
2019-03-15T02:22:36.826Z,6.73
2019-03-15T02:25:50.570Z,6.72
2019-03-15T02:29:04.153Z,6.80
2019-03-15T02:32:17.707Z,6.75
2019-03-15T02:35:31.179Z,6.67
2019-03-15T02:38:44.778Z,6.67
2019-03-15T02:41:58.996Z,6.70
2019-03-15T02:45:13.037Z,6.70
2019-03-15T02:48:26.503Z,6.73
2019-03-15T02:51:39.966Z,6.78
2019-03-15T02:54:54.652Z,6.82
2019-03-15T02:58:08.257Z,6.92
2019-03-15T03:01:22.086Z,6.83
2019-03-15T03:04:35.559Z,6.81
2019-03-15T03:07:49.012Z,6.81
2019-03-15T03:11:02.591Z,6.92
2019-03-15T03:14:16.063Z,6.96
2019-03-15T03:17:32.365Z,6.90
2019-03-15T03:20:48.191Z,6.90
2019-03-15T03:24:01.919Z,7.00
2019-03-15T03:27:15.380Z,7.07
2019-03-15T03:30:29.160Z,7.20
2019-03-15T03:33:42.917Z,7.16
2019-03-15T03:36:58.020Z,7.05
2019-03-15T03:40:11.994Z,7.17
2019-03-15T03:43:25.711Z,7.20
2019-03-15T03:46:39.169Z,7.20
2019-03-15T03:49:53.548Z,7.28
2019-03-15T03:53:07.259Z,7.38
2019-03-15T03:56:21.047Z,7.38
2019-03-15T03:59:34.781Z,7.44
2019-03-15T04:02:48.527Z,7.42
2019-03-15T04:06:02.732Z,7.49
2019-03-15T04:09:16.996Z,7.49
2019-03-15T04:12:30.469Z,7.43
2019-03-15T04:15:43.962Z,7.41
2019-03-15T04:18:57.415Z,7.45
2019-03-15T04:22:10.877Z,7.46
2019-03-15T04:25:24.349Z,7.49
2019-03-15T04:28:38.101Z,7.50
2019-03-15T04:31:51.869Z,7.48
2019-03-15T04:35:05.531Z,7.42
2019-03-15T04:38:19.257Z,7.50
2019-03-15T04:41:33.019Z,7.46
2019-03-15T04:44:46.776Z,7.48
2019-03-15T04:48:00.236Z,7.42
2019-03-15T04:51:13.708Z,7.56
2019-03-15T04:54:27.182Z,7.61
2019-03-15T04:57:40.642Z,7.56
2019-03-15T05:00:54.429Z,7.48
2019-03-15T05:04:07.894Z,7.58
2019-03-15T05:07:21.405Z,7.57
2019-03-15T05:10:34.879Z,7.42
2019-03-15T05:13:48.351Z,7.40
2019-03-15T05:17:02.387Z,7.34
2019-03-15T05:20:15.854Z,7.22
2019-03-15T05:23:29.307Z,7.15
2019-03-15T05:26:43.048Z,7.17
2019-03-15T05:29:56.518Z,7.14
2019-03-15T05:33:10.239Z,7.19
2019-03-15T05:36:24.005Z,7.25
2019-03-15T05:39:37.477Z,7.22
2019-03-15T05:42:50.960Z,7.20
2019-03-15T05:46:04.442Z,7.27
2019-03-15T05:49:17.871Z,7.24
2019-03-15T05:52:31.337Z,7.24
2019-03-15T05:55:45.070Z,7.18
2019-03-15T05:58:58.928Z,7.18
2019-03-15T06:02:12.763Z,7.17
2019-03-15T06:05:26.541Z,7.21
2019-03-15T06:08:40.015Z,7.27
2019-03-15T06:11:53.995Z,7.17
2019-03-15T06:15:07.875Z,7.19
2019-03-15T06:18:21.348Z,7.26
2019-03-15T06:21:34.828Z,7.26
2019-03-15T06:24:48.552Z,7.14
2019-03-15T06:28:02.686Z,7.10
2019-03-15T06:31:16.137Z,7.19
2019-03-15T06:34:29.979Z,7.18
2019-03-15T06:37:43.926Z,7.19
2019-03-15T06:40:57.696Z,7.22
2019-03-15T06:44:11.456Z,7.29
2019-03-15T06:47:25.027Z,7.35
2019-03-15T06:50:38.487Z,7.27
2019-03-15T06:53:52.064Z,7.26
2019-03-15T06:57:06.528Z,7.33
2019-03-15T07:00:20.512Z,7.32
2019-03-15T07:03:33.972Z,7.41
2019-03-15T07:06:47.731Z,7.55
2019-03-15T07:10:01.635Z,7.51
2019-03-15T07:13:15.654Z,7.45
2019-03-15T07:16:31.030Z,7.56
2019-03-15T07:19:44.501Z,7.56
2019-03-15T07:22:58.075Z,7.63
2019-03-15T07:26:11.793Z,7.62
2019-03-15T07:29:25.385Z,7.59
2019-03-15T07:32:39.273Z,7.57
2019-03-15T07:35:53.069Z,7.57
2019-03-15T07:39:26.877Z,7.64
2019-03-15T07:42:41.241Z,7.77
2019-03-15T07:45:55.285Z,7.74
2019-03-15T07:49:14.074Z,7.74
2019-03-15T07:52:29.112Z,7.88
2019-03-15T07:55:44.109Z,7.89
2019-03-15T07:58:59.508Z,7.94
2019-03-15T08:02:14.828Z,7.93
2019-03-15T08:05:31.683Z,8.05
2019-03-15T08:08:46.299Z,8.14
2019-03-15T08:12:01.392Z,8.22
2019-03-15T08:15:15.146Z,8.37
2019-03-15T08:18:28.604Z,8.43
2019-03-15T08:21:42.056Z,8.45
2019-03-15T08:24:55.519Z,8.46
2019-03-15T08:28:08.956Z,8.55
2019-03-15T08:31:23.428Z,8.67
2019-03-15T08:34:37.407Z,8.64
2019-03-15T08:37:51.219Z,8.74
2019-03-15T08:41:04.801Z,8.77
2019-03-15T08:44:18.287Z,8.95
2019-03-15T08:47:31.733Z,9.04
2019-03-15T08:50:45.506Z,9.04
2019-03-15T08:53:59.283Z,9.25
2019-03-15T08:57:12.963Z,9.29
2019-03-15T09:00:26.418Z,9.32
2019-03-15T09:03:40.139Z,9.37
2019-03-15T09:06:53.594Z,9.35
2019-03-15T09:10:21.366Z,9.50
2019-03-15T09:13:23.666Z,9.70
2019-03-15T09:16:37.117Z,10.10
2019-03-15T09:19:50.572Z,10.27
2019-03-15T09:23:04.146Z,10.29
2019-03-15T09:26:17.595Z,10.36
2019-03-15T09:29:31.040Z,10.68
2019-03-15T09:32:44.714Z,10.86
2019-03-15T09:35:58.171Z,10.91
2019-03-15T09:39:12.226Z,10.87
2019-03-15T09:42:25.704Z,10.73
2019-03-15T09:45:39.189Z,10.69
2019-03-15T09:48:52.955Z,10.62
2019-03-15T09:52:06.416Z,10.62
2019-03-15T09:55:32.302Z,10.78
2019-03-15T09:58:35.551Z,11.01
2019-03-15T10:01:49.007Z,11.10
2019-03-15T10:05:10.592Z,11.24
2019-03-15T10:08:18.343Z,11.43
2019-03-15T10:11:31.864Z,11.65
2019-03-15T10:14:45.311Z,11.76
2019-03-15T10:17:58.778Z,11.92
2019-03-15T10:21:12.497Z,12.06
2019-03-15T10:24:25.944Z,12.17
2019-03-15T10:27:39.505Z,12.31
2019-03-15T10:30:52.966Z,12.38
2019-03-15T10:34:06.586Z,12.48
2019-03-15T10:37:20.106Z,12.49
2019-03-15T10:40:33.562Z,12.66
2019-03-15T10:43:47.032Z,12.85
2019-03-15T10:47:00.767Z,12.90
2019-03-15T10:50:14.357Z,12.93
2019-03-15T10:53:27.815Z,12.92
2019-03-15T10:56:41.259Z,12.64
2019-03-15T10:59:54.978Z,12.59
2019-03-15T11:03:08.447Z,12.42
2019-03-15T11:06:21.911Z,12.39
2019-03-15T11:09:35.378Z,12.39
2019-03-15T11:12:49.263Z,12.39
2019-03-15T11:16:02.832Z,12.48
2019-03-15T11:19:16.293Z,12.46
2019-03-15T11:22:30.056Z,12.53
2019-03-15T11:25:43.510Z,12.67
2019-03-15T11:28:57.242Z,12.68
2019-03-15T11:32:10.700Z,12.87
2019-03-15T11:35:24.268Z,12.98
2019-03-15T11:38:37.726Z,13.24
2019-03-15T11:41:51.876Z,13.12
2019-03-15T11:45:06.599Z,13.20
2019-03-15T11:48:20.357Z,13.12
2019-03-15T11:51:34.109Z,13.52
2019-03-15T11:54:49.795Z,13.82
2019-03-15T11:58:03.131Z,13.82
2019-03-15T12:01:16.847Z,13.77
2019-03-15T12:04:30.618Z,13.78
2019-03-15T12:07:44.463Z,13.71
2019-03-15T12:10:57.906Z,13.60
2019-03-15T12:14:11.382Z,13.50
2019-03-15T12:17:24.848Z,13.40
2019-03-15T12:20:38.298Z,13.17
2019-03-15T12:23:51.868Z,13.01
2019-03-15T12:27:05.698Z,13.01
2019-03-15T12:30:19.602Z,12.92
2019-03-15T12:33:33.067Z,12.69
2019-03-15T12:36:47.066Z,12.58
2019-03-15T12:40:00.649Z,12.56
2019-03-15T12:43:14.231Z,12.61
2019-03-15T12:46:27.688Z,12.78
2019-03-15T12:49:41.424Z,12.90
2019-03-15T12:52:54.892Z,12.96
2019-03-15T12:56:10.912Z,12.95
2019-03-15T12:59:24.048Z,12.94
2019-03-15T13:02:37.777Z,12.79
2019-03-15T13:05:51.566Z,12.59
2019-03-15T13:09:05.955Z,12.32
2019-03-15T13:12:19.419Z,12.26
2019-03-15T13:15:32.871Z,12.21
2019-03-15T13:18:46.332Z,12.16
2019-03-15T13:21:59.795Z,12.03
2019-03-15T13:25:13.359Z,11.88
2019-03-15T13:28:27.060Z,11.88
2019-03-15T13:31:40.511Z,12.00
2019-03-15T13:34:53.966Z,11.97
2019-03-15T13:38:07.718Z,12.11
2019-03-15T13:41:21.188Z,12.28
2019-03-15T13:44:34.906Z,12.35
2019-03-15T13:47:48.354Z,12.37
2019-03-15T13:51:01.809Z,12.43
2019-03-15T13:54:15.281Z,12.46
2019-03-15T13:57:29.320Z,12.56
2019-03-15T14:00:42.883Z,12.56
2019-03-15T14:03:56.334Z,12.55
2019-03-15T14:07:10.068Z,12.54
2019-03-15T14:10:23.533Z,12.45
2019-03-15T14:13:36.990Z,12.47
2019-03-15T14:16:50.838Z,12.48
2019-03-15T14:20:05.054Z,12.58
2019-03-15T14:23:18.506Z,12.72
2019-03-15T14:26:32.299Z,12.82
2019-03-15T14:29:46.010Z,12.72
2019-03-15T14:32:59.469Z,12.62
2019-03-15T14:36:13.243Z,12.67
2019-03-15T14:39:27.069Z,12.69
2019-03-15T14:42:40.917Z,12.56
2019-03-15T14:45:54.859Z,12.49
2019-03-15T14:49:08.700Z,12.55
2019-03-15T14:52:22.455Z,12.47
2019-03-15T14:55:35.923Z,12.47
2019-03-15T14:58:49.690Z,12.46
2019-03-15T15:02:03.271Z,12.44
2019-03-15T15:05:16.833Z,12.40
2019-03-15T15:08:30.294Z,12.39
2019-03-15T15:11:43.877Z,12.39
2019-03-15T15:14:57.868Z,12.38
2019-03-15T15:18:11.355Z,12.37
2019-03-15T15:21:24.826Z,12.33
2019-03-15T15:24:38.860Z,12.30
2019-03-15T15:28:03.735Z,12.29
2019-03-15T15:31:07.689Z,12.23
2019-03-15T15:34:21.415Z,12.17
2019-03-15T15:37:35.120Z,12.12
2019-03-15T15:40:48.879Z,12.05
2019-03-15T15:44:02.600Z,12.07
2019-03-15T15:47:16.846Z,12.04
2019-03-15T15:50:30.473Z,12.09
2019-03-15T15:53:43.959Z,12.07
2019-03-15T15:56:58.192Z,11.99
2019-03-15T16:00:12.228Z,11.93
2019-03-15T16:03:25.692Z,11.96
2019-03-15T16:06:39.280Z,11.96
2019-03-15T16:09:52.877Z,11.88
2019-03-15T16:13:16.641Z,11.93
2019-03-15T16:16:22.552Z,11.94
2019-03-15T16:19:36.051Z,11.93
2019-03-15T16:22:50.282Z,11.96
2019-03-15T16:26:03.748Z,11.97
2019-03-15T16:29:17.217Z,11.94
2019-03-15T16:32:31.176Z,11.98
2019-03-15T16:35:44.744Z,12.04
2019-03-15T16:38:58.479Z,12.12
2019-03-15T16:42:12.501Z,12.13
2019-03-15T16:45:26.096Z,12.08
2019-03-15T16:48:40.215Z,12.02
2019-03-15T16:51:54.000Z,12.04
2019-03-15T16:55:08.738Z,12.02
2019-03-15T16:58:22.291Z,11.99
2019-03-15T17:01:35.843Z,12.00
2019-03-15T17:04:49.311Z,12.00
2019-03-15T17:08:03.395Z,11.92
2019-03-15T17:11:17.444Z,11.90
2019-03-15T17:14:31.139Z,11.90
2019-03-15T17:17:44.608Z,11.82
2019-03-15T17:20:58.061Z,11.89
2019-03-15T17:24:11.807Z,11.79
2019-03-15T17:27:25.255Z,11.71
2019-03-15T17:30:38.837Z,11.74
2019-03-15T17:33:52.324Z,11.68
2019-03-15T17:37:07.077Z,11.67
2019-03-15T17:40:20.910Z,11.64
2019-03-15T17:43:34.379Z,11.64
2019-03-15T17:46:48.391Z,11.70
2019-03-15T17:50:02.286Z,11.76
2019-03-15T17:53:15.916Z,11.80
2019-03-15T17:56:29.374Z,11.69
2019-03-15T18:00:03.278Z,11.76
2019-03-15T18:03:21.319Z,11.72
2019-03-15T18:06:32.620Z,11.74
2019-03-15T18:09:46.085Z,11.74
2019-03-15T18:13:00.085Z,11.71
2019-03-15T18:16:13.542Z,11.75
2019-03-15T18:19:27.016Z,11.75
2019-03-15T18:22:40.474Z,11.81
2019-03-15T18:25:54.052Z,11.75
2019-03-15T18:29:07.604Z,11.78
2019-03-15T18:32:21.474Z,11.88
2019-03-15T18:35:35.224Z,11.81
2019-03-15T18:38:48.686Z,11.78
2019-03-15T18:42:02.170Z,11.79
2019-03-15T18:45:16.030Z,11.81
2019-03-15T18:48:29.464Z,11.82
2019-03-15T18:51:43.030Z,11.86
2019-03-15T18:54:56.510Z,11.84
2019-03-15T18:58:09.968Z,11.80
2019-03-15T19:01:23.693Z,11.82
2019-03-15T19:04:37.137Z,11.71
2019-03-15T19:07:50.596Z,11.75
2019-03-15T19:11:04.159Z,11.67
2019-03-15T19:14:17.644Z,11.70
2019-03-15T19:17:31.563Z,11.72
2019-03-15T19:20:45.374Z,11.70
2019-03-15T19:23:59.177Z,11.67
2019-03-15T19:27:13.020Z,11.59
2019-03-15T19:30:26.455Z,11.61
2019-03-15T19:33:39.986Z,11.52
2019-03-15T19:36:53.658Z,11.53
2019-03-15T19:40:08.851Z,11.53
2019-03-15T19:43:22.640Z,11.44
2019-03-15T19:46:36.160Z,11.44
2019-03-15T19:49:49.614Z,11.44
2019-03-15T19:53:03.358Z,11.43
2019-03-15T19:56:17.142Z,11.42
2019-03-15T19:59:30.592Z,11.41
2019-03-15T20:02:44.170Z,11.40
2019-03-15T20:05:57.935Z,11.35
2019-03-15T20:09:11.401Z,11.35
2019-03-15T20:12:25.243Z,11.32
2019-03-15T20:15:38.693Z,11.31
2019-03-15T20:18:52.186Z,11.32
2019-03-15T20:22:05.991Z,11.30
2019-03-15T20:25:19.742Z,11.25
2019-03-15T20:28:33.205Z,11.32
2019-03-15T20:31:46.923Z,11.35
2019-03-15T20:35:00.671Z,11.31
2019-03-15T20:38:14.140Z,11.33
2019-03-15T20:41:27.867Z,11.27
2019-03-15T20:44:41.329Z,11.31
2019-03-15T20:47:54.791Z,11.28
2019-03-15T20:51:08.262Z,11.25
2019-03-15T20:54:21.784Z,11.23
2019-03-15T20:57:35.743Z,11.30
2019-03-15T21:00:49.286Z,11.32
2019-03-15T21:04:02.873Z,11.31
2019-03-15T21:07:16.651Z,11.31
2019-03-15T21:10:30.526Z,11.31
2019-03-15T21:13:44.184Z,11.35
2019-03-15T21:16:58.235Z,11.33
2019-03-15T21:20:12.115Z,11.43
2019-03-15T21:23:25.582Z,11.40
2019-03-15T21:26:39.036Z,11.41
2019-03-15T21:29:52.599Z,11.34
2019-03-15T21:33:06.165Z,11.31
2019-03-15T21:36:19.630Z,11.30
2019-03-15T21:39:33.213Z,11.30
2019-03-15T21:42:46.799Z,11.32
2019-03-15T21:46:00.253Z,11.34
2019-03-15T21:49:13.711Z,11.37
2019-03-15T21:52:27.494Z,11.42
2019-03-15T21:55:41.240Z,11.46
2019-03-15T21:58:54.721Z,11.47
2019-03-15T22:02:08.167Z,11.44
2019-03-15T22:05:21.880Z,11.44
2019-03-15T22:08:35.350Z,11.39
2019-03-15T22:11:48.801Z,11.33
2019-03-15T22:15:02.694Z,11.36
2019-03-15T22:18:16.376Z,11.37
2019-03-15T22:21:29.840Z,11.36
2019-03-15T22:24:43.704Z,11.37
2019-03-15T22:27:57.265Z,11.41
2019-03-15T22:31:16.484Z,11.41
2019-03-15T22:34:26.370Z,11.43
2019-03-15T22:37:40.195Z,11.43
2019-03-15T22:40:53.755Z,11.52
2019-03-15T22:44:07.234Z,11.53
2019-03-15T22:47:20.928Z,11.51
2019-03-15T22:50:34.390Z,11.50
2019-03-15T22:53:47.841Z,11.46
2019-03-15T22:57:01.578Z,11.51
2019-03-15T23:00:15.358Z,11.46
2019-03-15T23:03:28.995Z,11.44
2019-03-15T23:06:42.459Z,11.40
2019-03-15T23:09:55.905Z,11.42
2019-03-15T23:13:09.615Z,11.48
2019-03-15T23:16:23.092Z,11.46
2019-03-15T23:19:36.818Z,11.43
2019-03-15T23:22:50.575Z,11.45
2019-03-15T23:26:04.302Z,11.43
2019-03-15T23:29:17.778Z,11.45
2019-03-15T23:32:31.236Z,11.43
2019-03-15T23:35:53.955Z,11.45
2019-03-15T23:39:00.050Z,11.42
2019-03-15T23:42:13.859Z,11.39
2019-03-15T23:45:27.313Z,11.40
2019-03-15T23:48:41.079Z,11.40
2019-03-15T23:51:54.530Z,11.41
2019-03-15T23:55:08.181Z,11.37
2019-03-15T23:58:21.874Z,11.34
